Other Surface Observations
Issued by NWS Missoula, MT

Home | Current Version | Previous Version | Text Only | Print | Product List | Glossary On
Versions: 1 2 3 4 5 6 7 8 9 10 11 12 13 14 15 16 17 18 19 20 21 22 23 24 25 26 27 28 29 30 31 32 33 34 35 36 37 38 39 40 41 42 43 44 45 46 47 48 49 50
569
SXUS55 KMSO 271703
OSOMSO
MONTANA AWOS SUMMARY
NATIONAL WEATHER SERVICE MISSOULA MT
1103 AM MDT SAT AUG 27 2016

Montana AWOS Reports

LAUREL      |K6S8 271655Z AUTO 22009G13KT 40SM 21/06 A2991 RMK AO1 T02060056
TWIN BRIDGES|K7S1 271655Z AUTO 15005KT 40SM 18/01 A2999 RMK AO1 T01780011
ROUNDUP     |KRPX 271655Z AUTO 17008KT 40SM 19/06 A2982 RMK AO1 T01940061
SCOBEY      |K9S2 271655Z AUTO 16005KT 40SM 21/07 A2985 RMK AO1 T02110067
EKALAKA     |K97M 271655Z AUTO VRB05KT 40SM 22/08 A2993 RMK AO1 T02220083
PLAINS      |KS34 271655Z AUTO VRB04KT 25SM 24/06 A2983 RMK AO1 T02390061




USA.gov is the U.S. government's official web portal to all federal, state and local government web resources and services.